Time;durP1;ratioP1;P1;durP2;ratioP2;P2;SDS_P1;SDS_P2;PMS_P1;PMS_P2;Temp;Humidity;BMP_temperature;BMP_pressure;BME280_temperature;BME280_humidity;BME280_pressure;Samples;Min_cycle;Max_cycle;Signal;HPM_P1;HPM_P2
2023/04/12 00:01:35;;;;;;;6.55;1.73;;;7.20;99.90;;;;;;5053283;28;20408;-88
2023/04/12 00:04:04;;;;;;;10.38;1.83;;;7.20;99.90;;;;;;5053188;28;20115;-84
2023/04/12 00:06:33;;;;;;;11.60;2.05;;;7.20;99.90;;;;;;5035659;28;20518;-86
2023/04/12 00:09:00;;;;;;;7.38;1.60;;;7.30;99.90;;;;;;5053262;28;20492;-85
2023/04/12 00:11:28;;;;;;;8.70;1.58;;;7.30;99.90;;;;;;5053534;28;20155;-85
2023/04/12 00:13:54;;;;;;;6.60;1.95;;;7.20;99.90;;;;;;5053356;28;20043;-85
2023/04/12 00:16:20;;;;;;;6.63;2.65;;;7.30;99.90;;;;;;5053186;28;20049;-85
2023/04/12 00:18:46;;;;;;;7.32;1.77;;;7.30;99.90;;;;;;5053179;28;20540;-85
2023/04/12 00:21:12;;;;;;;5.82;1.77;;;7.30;99.90;;;;;;5053052;28;20045;-85
2023/04/12 00:23:38;;;;;;;8.27;2.28;;;7.30;99.90;;;;;;5035298;28;20040;-84
2023/04/12 00:26:04;;;;;;;6.15;1.80;;;7.30;99.90;;;;;;5055221;28;20491;-85
2023/04/12 00:28:30;;;;;;;7.90;1.88;;;7.30;99.90;;;;;;5057209;28;20059;-84
2023/04/12 00:30:55;;;;;;;7.30;2.22;;;7.30;99.90;;;;;;5039337;28;20539;-84
2023/04/12 00:33:21;;;;;;;9.75;2.05;;;7.30;99.90;;;;;;5057447;28;20049;-84
2023/04/12 00:35:47;;;;;;;5.70;1.58;;;7.30;99.90;;;;;;5039126;28;20057;-84
2023/04/12 00:38:14;;;;;;;8.75;2.63;;;7.30;99.90;;;;;;5057171;28;20090;-84
2023/04/12 00:40:43;;;;;;;10.13;2.05;;;7.30;99.90;;;;;;5039150;28;20045;-84
2023/04/12 00:43:14;;;;;;;7.25;2.50;;;7.30;99.90;;;;;;5039155;28;20045;-84
2023/04/12 00:45:40;;;;;;;5.07;2.00;;;7.30;99.90;;;;;;5057077;28;20041;-84
2023/04/12 00:48:07;;;;;;;10.73;2.60;;;7.40;99.90;;;;;;5057023;28;20126;-84
2023/04/12 00:50:34;;;;;;;7.68;2.22;;;7.40;99.90;;;;;;5056970;28;20065;-84
2023/04/12 00:53:02;;;;;;;9.57;2.60;;;7.40;99.90;;;;;;5038777;28;20068;-84
2023/04/12 00:55:29;;;;;;;9.00;2.35;;;7.40;99.90;;;;;;5056717;28;20041;-85
2023/04/12 00:57:55;;;;;;;7.75;2.60;;;7.40;99.90;;;;;;5056430;28;20455;-84
2023/04/12 01:00:21;;;;;;;6.57;2.38;;;7.40;99.90;;;;;;5056679;28;20040;-84
2023/04/12 01:02:49;;;;;;;7.13;2.22;;;7.40;99.90;;;;;;5038693;28;20349;-84
2023/04/12 01:05:22;;;;;;;6.65;2.53;;;7.40;99.90;;;;;;5038671;28;20045;-83
2023/04/12 01:08:24;;;;;;;9.18;2.80;;;7.40;99.90;;;;;;5056771;28;20512;-84
2023/04/12 01:11:17;;;;;;;8.48;2.83;;;7.40;99.90;;;;;;5033781;28;20558;-83
2023/04/12 01:14:12;;;;;;;10.82;2.08;;;7.40;99.90;;;;;;5056825;28;20048;-83
2023/04/12 01:16:46;;;;;;;10.00;2.70;;;7.40;99.90;;;;;;4997222;28;20057;-83
2023/04/12 01:19:43;;;;;;;7.93;2.70;;;7.30;99.90;;;;;;5056435;28;20048;-83
2023/04/12 01:22:31;;;;;;;7.60;2.40;;;7.40;99.90;;;;;;5008335;28;20111;-83
2023/04/12 01:25:22;;;;;;;9.77;3.38;;;7.30;99.90;;;;;;5038541;28;20049;-83
2023/04/12 01:27:53;;;;;;;11.07;3.33;;;7.30;99.90;;;;;;5056267;28;20043;-84
2023/04/12 01:30:19;;;;;;;8.60;3.00;;;7.30;99.90;;;;;;5056223;28;20052;-84
2023/04/12 01:32:50;;;;;;;9.18;2.70;;;7.40;99.90;;;;;;5056018;28;20439;-84
2023/04/12 01:35:19;;;;;;;12.18;2.67;;;7.30;99.90;;;;;;5056063;28;20052;-84
2023/04/12 01:37:45;;;;;;;11.55;2.85;;;7.40;99.90;;;;;;5055289;28;20563;-84
2023/04/12 01:40:12;;;;;;;8.93;3.20;;;7.40;99.90;;;;;;5055783;28;20041;-84
2023/04/12 01:42:38;;;;;;;9.73;2.80;;;7.40;99.90;;;;;;5055984;28;20116;-84
2023/04/12 01:45:05;;;;;;;8.45;3.40;;;7.40;99.90;;;;;;5037878;28;20473;-83
2023/04/12 01:47:32;;;;;;;8.25;3.05;;;7.50;99.90;;;;;;5055919;28;20052;-83
2023/04/12 01:50:24;;;;;;;12.88;3.30;;;7.40;99.90;;;;;;5037926;28;20070;-84
2023/04/12 01:53:03;;;;;;;10.15;3.10;;;7.50;99.90;;;;;;5037681;28;20053;-84
2023/04/12 01:55:32;;;;;;;10.43;3.33;;;7.50;99.90;;;;;;5048296;28;20049;-84
2023/04/12 01:58:00;;;;;;;7.63;2.85;;;7.50;99.90;;;;;;5055618;28;20099;-83
2023/04/12 02:00:26;;;;;;;11.52;3.72;;;7.50;99.90;;;;;;5047792;28;20048;-84
2023/04/12 02:02:52;;;;;;;9.23;3.25;;;7.50;99.90;;;;;;5056067;28;20040;-84
2023/04/12 02:05:19;;;;;;;6.95;3.15;;;7.60;99.90;;;;;;5055743;28;20045;-84
2023/04/12 02:07:47;;;;;;;8.07;2.88;;;7.70;99.90;;;;;;5037766;28;20087;-83
2023/04/12 02:10:14;;;;;;;10.02;2.92;;;7.70;99.90;;;;;;5037515;28;20052;-84
2023/04/12 02:12:40;;;;;;;13.38;3.67;;;7.80;99.90;;;;;;5037521;28;20053;-84
2023/04/12 02:15:07;;;;;;;7.57;3.58;;;7.80;99.90;;;;;;5055232;28;20464;-84
2023/04/12 02:17:35;;;;;;;9.38;3.08;;;7.80;99.90;;;;;;5037574;28;20048;-84
2023/04/12 02:20:01;;;;;;;8.63;3.08;;;7.80;99.90;;;;;;5055292;28;20045;-84
2023/04/12 02:22:26;;;;;;;12.23;3.20;;;7.90;99.90;;;;;;5037282;28;20099;-84
2023/04/12 02:24:52;;;;;;;12.13;3.10;;;7.90;99.90;;;;;;5037276;28;20040;-85
2023/04/12 02:27:17;;;;;;;12.45;3.20;;;7.80;99.90;;;;;;5055021;28;20084;-85
2023/04/12 02:29:43;;;;;;;10.15;2.72;;;7.90;99.90;;;;;;5054736;28;20056;-85
2023/04/12 02:32:09;;;;;;;9.63;2.78;;;7.90;99.90;;;;;;5037307;28;20049;-85
2023/04/12 02:34:37;;;;;;;8.32;3.80;;;7.90;99.90;;;;;;5037498;28;20447;-84
2023/04/12 02:37:03;;;;;;;9.55;2.88;;;7.90;99.90;;;;;;5036982;28;20057;-84
2023/04/12 02:39:31;;;;;;;8.07;3.30;;;7.90;99.90;;;;;;5036794;28;20527;-84
2023/04/12 02:41:56;;;;;;;10.13;2.53;;;7.80;99.90;;;;;;5036962;28;20084;-84
2023/04/12 02:44:22;;;;;;;6.10;2.38;;;7.90;99.90;;;;;;5037001;28;20080;-84
2023/04/12 02:46:48;;;;;;;9.18;2.90;;;7.90;99.90;;;;;;5037089;28;20052;-84
2023/04/12 02:49:14;;;;;;;7.38;2.88;;;7.90;99.90;;;;;;5036017;28;20568;-83
2023/04/12 02:51:40;;;;;;;7.32;2.50;;;7.90;99.90;;;;;;5036740;28;20045;-84
2023/04/12 02:54:06;;;;;;;5.63;2.38;;;7.90;99.90;;;;;;5054666;28;20044;-85
2023/04/12 02:56:34;;;;;;;5.38;2.47;;;7.90;99.90;;;;;;5054528;28;20396;-85
2023/04/12 02:59:00;;;;;;;9.60;3.10;;;7.90;99.90;;;;;;5054611;28;20049;-84
2023/04/12 03:01:26;;;;;;;6.18;2.42;;;7.90;99.90;;;;;;5054582;28;20053;-84
2023/04/12 03:03:51;;;;;;;7.68;2.95;;;7.90;99.90;;;;;;5054690;28;20396;-84
2023/04/12 03:06:17;;;;;;;7.35;2.53;;;8.00;99.90;;;;;;5054404;28;20202;-84
2023/04/12 03:08:43;;;;;;;4.53;1.88;;;7.90;99.90;;;;;;5036835;28;20068;-85
2023/04/12 03:11:09;;;;;;;4.85;2.28;;;8.00;99.90;;;;;;5054326;28;20041;-84
2023/04/12 03:13:35;;;;;;;9.25;2.72;;;8.00;99.90;;;;;;5054113;28;20085;-85
2023/04/12 03:16:22;;;;;;;7.07;2.45;;;8.00;99.90;;;;;;5054207;28;20051;-85
2023/04/12 03:18:49;;;;;;;9.63;2.58;;;8.00;99.90;;;;;;5036593;28;20049;-84
2023/04/12 03:21:15;;;;;;;6.20;2.20;;;8.00;99.90;;;;;;5054148;28;20094;-84
2023/04/12 03:23:41;;;;;;;8.20;2.50;;;8.00;99.90;;;;;;5054126;28;20041;-85
2023/04/12 03:26:07;;;;;;;8.27;2.47;;;8.00;99.90;;;;;;5054101;28;20063;-83
2023/04/12 03:28:33;;;;;;;5.35;1.90;;;8.00;99.90;;;;;;5036313;28;20063;-84
2023/04/12 03:30:59;;;;;;;6.28;2.08;;;8.00;99.90;;;;;;5036321;28;20473;-83
2023/04/12 03:33:25;;;;;;;10.27;2.20;;;8.00;99.90;;;;;;5053962;28;20055;-84
2023/04/12 03:35:51;;;;;;;6.43;2.22;;;8.00;99.90;;;;;;5035962;28;20057;-84
2023/04/12 03:38:16;;;;;;;8.60;3.28;;;8.00;99.90;;;;;;5053852;28;20189;-84
2023/04/12 03:40:42;;;;;;;8.18;2.25;;;8.00;99.90;;;;;;5053680;28;20087;-84
2023/04/12 03:43:08;;;;;;;6.38;2.00;;;8.00;99.90;;;;;;5035796;28;20442;-84
2023/04/12 03:45:33;;;;;;;7.60;2.35;;;8.00;99.90;;;;;;5053866;28;20041;-82
2023/04/12 03:48:00;;;;;;;11.57;2.20;;;7.90;99.90;;;;;;5053741;28;20056;-83
2023/04/12 03:50:28;;;;;;;9.80;3.17;;;8.00;99.90;;;;;;5053707;28;20049;-83
2023/04/12 03:52:54;;;;;;;5.03;2.03;;;8.00;99.90;;;;;;5053502;28;20056;-83
2023/04/12 03:55:20;;;;;;;7.40;2.30;;;7.90;99.90;;;;;;5053622;28;20051;-83
2023/04/12 03:57:45;;;;;;;8.00;2.58;;;7.90;99.90;;;;;;5053686;28;20048;-82
2023/04/12 04:00:12;;;;;;;5.57;2.10;;;7.90;99.90;;;;;;5053528;28;20043;-82
2023/04/12 04:02:37;;;;;;;9.07;2.53;;;7.90;99.90;;;;;;5035690;28;20045;-82
2023/04/12 04:05:04;;;;;;;7.57;2.67;;;7.90;99.90;;;;;;5053568;28;20091;-82
2023/04/12 04:07:30;;;;;;;7.72;2.60;;;7.80;99.90;;;;;;5053583;28;20049;-83
2023/04/12 04:09:56;;;;;;;8.15;2.20;;;7.80;99.90;;;;;;5035487;28;20080;-83
2023/04/12 04:12:22;;;;;;;7.25;2.72;;;7.80;99.90;;;;;;5035485;28;20076;-83
2023/04/12 04:14:48;;;;;;;11.50;2.83;;;7.80;99.90;;;;;;5035807;28;20045;-84
2023/04/12 04:17:13;;;;;;;5.78;2.20;;;7.80;99.90;;;;;;5035546;28;20048;-84
2023/04/12 04:19:39;;;;;;;9.43;2.38;;;7.70;99.90;;;;;;5035533;28;20091;-84
2023/04/12 04:22:05;;;;;;;5.45;1.80;;;7.80;99.90;;;;;;5035510;28;20139;-85
2023/04/12 04:24:33;;;;;;;8.38;2.80;;;7.80;99.90;;;;;;5054038;28;20040;-85
2023/04/12 04:26:58;;;;;;;7.18;1.92;;;7.80;99.90;;;;;;5053359;28;20049;-85
2023/04/12 04:29:24;;;;;;;10.63;2.50;;;7.70;99.90;;;;;;5053205;28;20049;-85
2023/04/12 04:31:50;;;;;;;9.48;2.22;;;7.70;99.90;;;;;;5053325;28;20420;-85
2023/04/12 04:34:17;;;;;;;6.85;2.72;;;7.70;99.90;;;;;;5053288;28;20044;-85
2023/04/12 04:36:43;;;;;;;7.22;2.67;;;7.70;99.90;;;;;;5035418;28;20044;-85
2023/04/12 04:39:09;;;;;;;11.50;3.72;;;7.70;99.90;;;;;;5053479;28;20040;-85
2023/04/12 04:41:38;;;;;;;7.00;2.90;;;7.70;99.90;;;;;;5053035;28;20084;-86
2023/04/12 04:44:09;;;;;;;4.75;1.92;;;7.70;99.90;;;;;;5053119;28;20044;-86
2023/04/12 04:46:38;;;;;;;7.78;2.65;;;7.70;99.90;;;;;;5035268;28;20056;-86
2023/04/12 04:49:05;;;;;;;11.27;2.80;;;7.70;99.90;;;;;;5053006;28;20124;-86
2023/04/12 04:51:37;;;;;;;6.07;2.85;;;7.60;99.90;;;;;;5052659;28;20415;-86
2023/04/12 04:54:03;;;;;;;8.10;2.83;;;7.60;99.90;;;;;;5052791;28;20396;-86
2023/04/12 04:56:29;;;;;;;8.68;4.15;;;7.60;99.90;;;;;;5035081;28;20473;-86
2023/04/12 04:58:54;;;;;;;6.10;2.97;;;7.60;99.90;;;;;;5053117;28;20045;-87
2023/04/12 05:01:24;;;;;;;14.80;6.43;;;7.60;99.90;;;;;;5053036;28;20048;-86
2023/04/12 05:03:50;;;;;;;8.07;3.45;;;7.60;99.90;;;;;;5052855;28;20060;-86
2023/04/12 05:06:16;;;;;;;14.13;5.82;;;7.60;99.90;;;;;;5034901;28;20416;-85
2023/04/12 05:08:41;;;;;;;17.55;7.10;;;7.60;99.90;;;;;;5052898;28;20120;-86
2023/04/12 05:11:07;;;;;;;9.85;3.90;;;7.50;99.90;;;;;;5035388;28;20135;-87
2023/04/12 05:13:33;;;;;;;9.85;4.72;;;7.50;99.90;;;;;;5038862;28;20056;-86
2023/04/12 05:15:58;;;;;;;14.82;5.82;;;7.60;99.90;;;;;;5056399;28;20049;-86
2023/04/12 05:18:24;;;;;;;11.02;5.65;;;7.40;99.90;;;;;;5033519;28;20048;-86
2023/04/12 05:20:50;;;;;;;15.02;6.55;;;7.50;99.90;;;;;;5031693;28;20100;-86
2023/04/12 05:23:16;;;;;;;13.35;6.00;;;7.40;99.90;;;;;;5019257;28;20045;-87
2023/04/12 05:25:46;;;;;;;11.57;6.68;;;7.40;99.90;;;;;;5036318;28;20128;-87
2023/04/12 05:28:14;;;;;;;12.85;6.95;;;7.50;99.90;;;;;;5036050;28;20425;-86
2023/04/12 05:30:40;;;;;;;11.07;6.70;;;7.50;99.90;;;;;;5036163;28;20079;-86
2023/04/12 05:33:05;;;;;;;15.20;6.10;;;7.40;99.90;;;;;;5018727;28;20041;-86
2023/04/12 05:35:31;;;;;;;15.68;7.07;;;7.50;99.90;;;;;;5035962;28;20175;-85
2023/04/12 05:37:56;;;;;;;12.88;5.88;;;7.50;99.90;;;;;;5018514;28;20037;-86
2023/04/12 05:40:22;;;;;;;17.13;6.93;;;7.50;99.90;;;;;;5036060;28;20126;-86
2023/04/12 05:42:48;;;;;;;16.90;7.18;;;7.50;99.90;;;;;;5035918;28;20068;-87
2023/04/12 05:45:13;;;;;;;13.85;6.00;;;7.50;99.90;;;;;;5035991;28;20396;-86
2023/04/12 05:47:39;;;;;;;15.23;5.35;;;7.50;99.90;;;;;;5035729;28;20053;-86
2023/04/12 05:50:06;;;;;;;12.18;4.80;;;7.40;99.90;;;;;;5018108;28;20041;-86
2023/04/12 05:52:36;;;;;;;10.98;5.68;;;7.40;99.90;;;;;;5035612;28;20136;-87
2023/04/12 05:55:03;;;;;;;13.27;5.10;;;7.40;99.90;;;;;;5035682;28;20053;-87
2023/04/12 05:57:29;;;;;;;12.18;4.30;;;7.40;99.90;;;;;;5035650;28;20493;-86
2023/04/12 05:59:55;;;;;;;11.85;5.78;;;7.40;99.90;;;;;;5035535;28;20125;-86
2023/04/12 06:02:21;;;;;;;20.65;7.05;;;7.40;99.90;;;;;;5035535;28;20041;-86
2023/04/12 06:04:47;;;;;;;15.38;6.28;;;7.50;99.90;;;;;;5017969;28;20103;-86
2023/04/12 06:07:16;;;;;;;15.38;6.68;;;7.40;99.90;;;;;;5017909;28;20053;-87
2023/04/12 06:09:42;;;;;;;25.60;9.50;;;7.50;99.90;;;;;;5035753;28;20049;-86
2023/04/12 06:12:07;;;;;;;20.13;8.57;;;7.30;99.90;;;;;;5035606;28;20043;-87
2023/04/12 06:14:33;;;;;;;18.90;7.53;;;7.40;99.90;;;;;;5035252;28;20490;-88
2023/04/12 06:16:58;;;;;;;21.05;9.73;;;7.40;99.90;;;;;;5035435;28;20050;-88
2023/04/12 06:19:24;;;;;;;12.60;7.47;;;7.30;99.90;;;;;;5017552;28;20080;-86
2023/04/12 06:21:51;;;;;;;17.25;8.05;;;7.40;99.90;;;;;;5035474;28;20489;-88
2023/04/12 06:24:17;;;;;;;17.67;7.63;;;7.40;99.90;;;;;;5016321;28;20041;-86
2023/04/12 06:26:45;;;;;;;35.90;11.68;;;7.40;99.90;;;;;;5035270;28;20141;-87
2023/04/12 06:29:11;;;;;;;40.45;13.95;;;7.40;99.90;;;;;;5035161;28;20060;-87
2023/04/12 06:31:37;;;;;;;16.45;7.45;;;7.40;99.90;;;;;;5017146;28;20049;-87
2023/04/12 06:34:03;;;;;;;15.88;5.75;;;7.40;99.90;;;;;;5017589;28;20186;-86
2023/04/12 06:36:29;;;;;;;11.38;5.22;;;7.40;99.90;;;;;;5034892;28;20493;-88
2023/04/12 06:38:54;;;;;;;16.75;7.43;;;7.40;99.90;;;;;;5035137;28;20048;-88
2023/04/12 06:41:20;;;;;;;15.20;6.60;;;7.30;99.90;;;;;;5035101;28;20044;-86
2023/04/12 06:43:46;;;;;;;13.10;5.80;;;7.30;99.90;;;;;;5034674;28;20053;-86
2023/04/12 06:46:17;;;;;;;13.20;6.55;;;7.40;99.90;;;;;;5034932;28;20132;-85
2023/04/12 06:48:43;;;;;;;12.63;6.35;;;7.40;99.90;;;;;;5034783;28;20091;-85
2023/04/12 06:51:10;;;;;;;16.05;7.05;;;7.40;99.90;;;;;;5016921;28;20065;-86
2023/04/12 06:53:38;;;;;;;14.07;7.78;;;7.40;99.90;;;;;;5034639;28;20092;-86
2023/04/12 06:56:04;;;;;;;12.13;6.68;;;7.40;99.90;;;;;;5034414;28;20385;-86
2023/04/12 06:58:30;;;;;;;12.88;7.30;;;7.40;99.90;;;;;;5034679;28;20056;-87
2023/04/12 07:01:06;;;;;;;13.68;7.35;;;7.40;99.90;;;;;;5009976;28;20038;-84
2023/04/12 07:03:32;;;;;;;11.43;6.20;;;7.40;99.90;;;;;;5021295;28;20042;-85
2023/04/12 07:06:01;;;;;;;12.57;7.05;;;7.40;99.90;;;;;;5014725;28;20117;-84
2023/04/12 07:08:27;;;;;;;13.27;6.30;;;7.40;99.90;;;;;;5014242;28;20425;-83
2023/04/12 07:10:53;;;;;;;14.25;6.63;;;7.50;99.90;;;;;;4997091;28;20077;-84
2023/04/12 07:13:19;;;;;;;15.32;6.57;;;7.40;99.90;;;;;;5014316;28;20120;-84
2023/04/12 07:15:45;;;;;;;11.77;6.03;;;7.50;99.90;;;;;;4996613;28;20141;-84
2023/04/12 07:18:11;;;;;;;10.48;6.13;;;7.40;99.90;;;;;;5014221;28;20049;-84
2023/04/12 07:20:37;;;;;;;11.07;5.88;;;7.50;99.90;;;;;;5016257;28;20042;-84
2023/04/12 07:23:02;;;;;;;11.13;6.78;;;7.50;99.90;;;;;;5024819;28;20412;-82
2023/04/12 07:25:28;;;;;;;12.85;6.28;;;7.50;99.90;;;;;;5023818;28;20088;-83
2023/04/12 07:27:53;;;;;;;12.65;6.85;;;7.50;99.90;;;;;;5018777;28;20068;-83
2023/04/12 07:30:19;;;;;;;10.40;6.50;;;7.50;99.90;;;;;;5022323;28;20523;-83
2023/04/12 07:32:45;;;;;;;11.98;6.50;;;7.60;99.90;;;;;;5036235;28;20049;-83
2023/04/12 07:35:11;;;;;;;13.50;7.53;;;7.60;99.90;;;;;;5016431;28;20038;-83
2023/04/12 07:37:36;;;;;;;13.98;7.95;;;7.60;99.90;;;;;;5036324;28;20034;-83
2023/04/12 07:40:02;;;;;;;14.13;8.57;;;7.60;99.90;;;;;;5021184;28;20056;-84
2023/04/12 07:42:28;;;;;;;16.80;8.90;;;7.60;99.90;;;;;;5036127;28;20049;-84
2023/04/12 07:44:54;;;;;;;13.48;7.97;;;7.60;99.90;;;;;;5032302;28;20038;-84
2023/04/12 07:47:19;;;;;;;12.15;7.75;;;7.50;99.90;;;;;;5032425;28;20067;-84
2023/04/12 07:49:45;;;;;;;17.02;7.93;;;7.60;99.90;;;;;;5033541;28;20049;-84
2023/04/12 07:52:11;;;;;;;14.68;7.63;;;7.60;99.90;;;;;;5044264;28;20078;-85
2023/04/12 07:54:37;;;;;;;14.77;8.38;;;7.60;99.90;;;;;;5035427;28;20049;-84
2023/04/12 07:57:03;;;;;;;13.77;7.22;;;7.60;99.90;;;;;;5053104;28;20111;-83
2023/04/12 07:59:30;;;;;;;12.38;6.93;;;7.60;99.90;;;;;;5053441;28;20124;-84
2023/04/12 08:01:56;;;;;;;12.90;7.95;;;7.60;99.90;;;;;;5035276;28;20562;-80
2023/04/12 08:04:21;;;;;;;11.55;8.57;;;7.70;99.90;;;;;;5035321;28;20040;-83
2023/04/12 08:06:47;;;;;;;12.27;7.22;;;7.70;99.90;;;;;;5035265;28;20045;-84
2023/04/12 08:09:13;;;;;;;13.43;8.18;;;7.70;99.90;;;;;;5053019;28;20049;-85
2023/04/12 08:11:39;;;;;;;29.25;11.98;;;7.60;99.90;;;;;;5035120;28;20056;-83
2023/04/12 08:14:04;;;;;;;12.65;7.63;;;7.70;99.90;;;;;;5035220;28;20049;-84
2023/04/12 08:16:31;;;;;;;14.45;9.10;;;7.70;99.90;;;;;;5053264;28;20052;-85
2023/04/12 08:18:57;;;;;;;12.82;8.20;;;7.80;99.90;;;;;;5052816;28;20098;-83
2023/04/12 08:21:22;;;;;;;16.00;8.45;;;7.80;99.90;;;;;;5052737;28;20045;-84
2023/04/12 08:23:49;;;;;;;16.70;9.80;;;7.70;99.90;;;;;;5049556;28;20033;-84
2023/04/12 08:26:15;;;;;;;13.02;8.45;;;7.80;99.90;;;;;;5049373;28;20400;-84
2023/04/12 08:28:41;;;;;;;15.77;8.13;;;7.70;99.90;;;;;;5049501;28;20492;-84
2023/04/12 08:31:07;;;;;;;14.25;7.78;;;7.70;99.90;;;;;;5049613;28;20037;-85
2023/04/12 08:33:33;;;;;;;13.68;8.02;;;7.70;99.90;;;;;;5047668;28;20045;-85
2023/04/12 08:35:59;;;;;;;14.30;9.02;;;7.80;99.90;;;;;;5025616;28;20051;-84
2023/04/12 08:38:25;;;;;;;16.98;10.05;;;7.90;99.90;;;;;;5049410;28;20120;-84
2023/04/12 08:40:50;;;;;;;10.60;7.10;;;7.80;99.90;;;;;;5049807;28;20392;-84
2023/04/12 08:43:17;;;;;;;15.23;9.35;;;7.90;99.90;;;;;;5049426;28;20087;-84
2023/04/12 08:45:44;;;;;;;16.05;10.15;;;7.90;99.90;;;;;;5018516;28;20041;-83
2023/04/12 08:48:10;;;;;;;15.45;8.98;;;7.90;99.90;;;;;;5052772;28;20554;-84
2023/04/12 08:50:36;;;;;;;14.80;9.10;;;7.90;99.90;;;;;;5056430;28;20049;-85
2023/04/12 08:53:01;;;;;;;16.35;9.98;;;7.90;99.90;;;;;;5056308;28;20052;-87
2023/04/12 08:55:27;;;;;;;15.10;9.45;;;7.90;99.90;;;;;;5056769;28;20055;-87
2023/04/12 08:57:55;;;;;;;16.35;10.02;;;8.00;99.90;;;;;;5038825;28;20045;-87
2023/04/12 09:00:21;;;;;;;16.05;9.38;;;8.20;99.90;;;;;;5038610;28;20072;-87
2023/04/12 09:02:47;;;;;;;13.48;9.38;;;8.20;99.90;;;;;;5038595;28;20091;-87
2023/04/12 09:05:13;;;;;;;14.25;9.90;;;8.20;99.90;;;;;;5038187;28;20040;-85
2023/04/12 09:07:40;;;;;;;14.35;9.32;;;8.40;99.90;;;;;;5056343;28;20424;-87
2023/04/12 09:10:06;;;;;;;15.45;8.70;;;8.40;99.90;;;;;;5056342;28;20055;-87
2023/04/12 09:12:32;;;;;;;16.40;9.52;;;8.50;99.90;;;;;;5056223;28;20056;-85
2023/04/12 09:15:09;;;;;;;16.92;8.80;;;8.70;99.90;;;;;;5038575;28;20049;-87
2023/04/12 09:17:35;;;;;;;15.57;9.05;;;8.90;99.90;;;;;;5055984;28;20484;-87
2023/04/12 09:20:03;;;;;;;14.23;8.57;;;9.00;99.90;;;;;;5056137;28;20033;-89
2023/04/12 09:22:36;;;;;;;16.60;9.18;;;9.10;99.90;;;;;;5056154;28;20407;-88
2023/04/12 09:25:02;;;;;;;16.40;9.07;;;9.10;99.90;;;;;;5038457;28;20095;-89
2023/04/12 09:27:28;;;;;;;14.52;8.65;;;9.30;99.90;;;;;;5038494;28;20072;-88
2023/04/12 09:30:07;;;;;;;16.05;8.32;;;9.50;99.90;;;;;;5055938;28;20041;-88
2023/04/12 09:32:33;;;;;;;12.20;8.30;;;9.40;99.90;;;;;;5037878;28;20059;-88
2023/04/12 09:35:00;;;;;;;12.90;8.80;;;9.50;99.90;;;;;;5038266;28;20044;-87
2023/04/12 09:37:25;;;;;;;14.90;7.93;;;9.60;99.90;;;;;;5055668;28;20378;-88
2023/04/12 09:39:59;;;;;;;11.02;6.78;;;9.60;99.90;;;;;;5038213;28;20056;-88
2023/04/12 09:42:25;;;;;;;11.18;6.93;;;9.80;99.90;;;;;;5055875;28;20131;-87
2023/04/12 09:44:52;;;;;;;13.43;6.30;;;9.70;99.90;;;;;;5037782;28;20128;-86
2023/04/12 09:47:19;;;;;;;14.57;6.07;;;9.90;99.90;;;;;;5055324;28;20075;-86
2023/04/12 09:49:45;;;;;;;8.30;5.00;;;9.90;99.90;;;;;;5055698;28;20045;-87
2023/04/12 09:52:13;;;;;;;10.93;5.35;;;10.00;99.90;;;;;;5055247;28;20400;-87
2023/04/12 09:54:50;;;;;;;10.23;5.10;;;10.20;99.90;;;;;;5055666;28;20103;-87
2023/04/12 09:57:20;;;;;;;9.15;3.80;;;10.30;99.90;;;;;;5036800;28;20048;-86
2023/04/12 09:59:49;;;;;;;9.90;3.80;;;10.50;99.90;;;;;;5037528;28;20052;-87
2023/04/12 10:02:23;;;;;;;9.63;3.88;;;10.50;99.90;;;;;;5055471;28;20064;-87
2023/04/12 10:04:49;;;;;;;14.95;4.07;;;10.70;99.90;;;;;;5055239;28;20045;-86
2023/04/12 10:07:16;;;;;;;9.05;4.07;;;10.80;99.90;;;;;;5037614;28;20044;-88
2023/04/12 10:09:42;;;;;;;14.15;3.90;;;11.00;99.90;;;;;;5037352;28;20056;-87
2023/04/12 10:12:08;;;;;;;14.52;5.00;;;11.00;99.90;;;;;;5037303;28;20041;-86
2023/04/12 10:14:34;;;;;;;11.93;4.35;;;11.20;99.90;;;;;;5037545;28;20138;-86
2023/04/12 10:17:02;;;;;;;10.57;3.88;;;11.40;99.90;;;;;;5036769;28;20051;-86
2023/04/12 10:19:30;;;;;;;14.63;3.92;;;11.40;99.90;;;;;;5037344;28;20052;-85
2023/04/12 10:21:56;;;;;;;13.63;4.00;;;11.50;99.90;;;;;;5028891;28;20041;-87
2023/04/12 10:24:26;;;;;;;15.13;3.78;;;11.40;99.90;;;;;;5034739;28;20045;-86
2023/04/12 10:27:02;;;;;;;13.35;3.47;;;11.70;99.90;;;;;;5029230;28;20087;-85
2023/04/12 10:29:31;;;;;;;12.05;3.85;;;11.80;99.90;;;;;;5027262;28;20041;-84
2023/04/12 10:32:17;;;;;;;11.05;3.83;;;11.80;99.90;;;;;;5029768;28;20094;-85
2023/04/12 10:34:43;;;;;;;13.90;4.10;;;11.90;99.90;;;;;;5029263;28;20045;-85
2023/04/12 10:37:08;;;;;;;10.82;3.42;;;11.90;99.90;;;;;;5034270;28;20115;-86
2023/04/12 10:39:50;;;;;;;12.73;3.40;;;11.80;99.90;;;;;;5026497;28;20050;-85
2023/04/12 10:42:26;;;;;;;20.35;3.17;;;12.00;99.90;;;;;;5034773;28;20069;-86
2023/04/12 10:44:54;;;;;;;22.23;3.08;;;12.10;99.90;;;;;;5034863;28;20064;-85
2023/04/12 10:47:57;;;;;;;17.83;3.35;;;11.90;99.90;;;;;;5032619;28;20053;-85
2023/04/12 10:50:33;;;;;;;17.53;3.20;;;12.10;99.90;;;;;;4992955;28;20405;-87
2023/04/12 10:53:11;;;;;;;11.45;2.25;;;12.50;99.90;;;;;;5050659;28;20292;-86
2023/04/12 10:55:38;;;;;;;13.23;2.33;;;12.80;99.90;;;;;;5054339;28;20060;-84
2023/04/12 10:58:03;;;;;;;15.02;2.13;;;12.90;99.90;;;;;;5053870;28;20047;-85
2023/04/12 11:00:54;;;;;;;15.30;2.50;;;13.10;99.90;;;;;;5036399;28;20123;-86
2023/04/12 11:03:20;;;;;;;14.57;3.67;;;13.10;99.90;;;;;;5054021;28;20508;-85
2023/04/12 11:06:03;;;;;;;13.02;2.95;;;13.00;99.90;;;;;;5036370;28;20060;-85
2023/04/12 11:08:29;;;;;;;;;;;12.80;99.90;;;;;;5053923;28;20048;-86
2023/04/12 11:11:02;;;;;;;11.55;2.13;;;12.70;99.90;;;;;;5035957;28;19928;-85
2023/04/12 11:13:29;;;;;;;16.27;2.83;;;12.70;99.90;;;;;;5054068;28;20047;-85
2023/04/12 11:15:56;;;;;;;21.95;2.58;;;12.80;99.90;;;;;;5053914;28;20051;-86
2023/04/12 11:18:22;;;;;;;16.17;2.60;;;12.80;99.90;;;;;;5035929;28;20400;-86
2023/04/12 11:20:51;;;;;;;15.07;2.50;;;12.60;99.90;;;;;;5053655;28;20037;-80
2023/04/12 11:23:17;;;;;;;14.43;3.67;;;12.60;99.90;;;;;;5053663;28;20489;-85
2023/04/12 11:25:48;;;;;;;14.48;2.78;;;12.40;99.90;;;;;;5035946;28;20124;-86
2023/04/12 11:28:17;;;;;;;17.52;2.97;;;12.10;99.90;;;;;;5035821;28;20056;-86
2023/04/12 11:30:52;;;;;;;17.67;2.38;;;12.20;99.90;;;;;;5035988;28;20052;-87
2023/04/12 11:33:38;;;;;;;16.13;2.35;;;12.20;99.90;;;;;;5035784;28;20571;-84
2023/04/12 11:36:11;;;;;;;17.25;3.20;;;12.20;99.90;;;;;;5053494;28;20174;-85
2023/04/12 11:38:37;;;;;;;17.73;3.13;;;12.30;99.90;;;;;;5036122;28;20044;-86
2023/04/12 11:41:05;;;;;;;12.48;2.50;;;12.40;99.90;;;;;;5053728;28;20049;-86
2023/04/12 11:43:32;;;;;;;12.90;2.55;;;12.50;99.90;;;;;;5035907;28;20041;-84
2023/04/12 11:45:59;;;;;;;11.27;2.28;;;12.60;99.90;;;;;;5052997;28;20048;-87
2023/04/12 11:48:26;;;;;;;14.27;2.42;;;12.60;99.90;;;;;;5033613;28;20126;-84
2023/04/12 11:50:58;;;;;;;16.33;2.42;;;12.50;99.90;;;;;;5028492;28;20106;-83
2023/04/12 11:53:30;;;;;;;16.95;2.38;;;12.50;99.90;;;;;;5044833;28;20046;-83
2023/04/12 11:55:58;;;;;;;14.00;2.60;;;12.50;99.90;;;;;;5011636;28;20452;-84
2023/04/12 11:58:27;;;;;;;11.60;2.35;;;12.50;99.90;;;;;;5011059;28;20382;-84
2023/04/12 12:00:56;;;;;;;16.65;2.10;;;12.40;99.90;;;;;;5030532;28;20542;-84
2023/04/12 12:03:22;;;;;;;12.98;2.90;;;12.40;99.90;;;;;;5028663;28;20069;-84
2023/04/12 12:05:48;;;;;;;13.75;1.77;;;12.50;99.90;;;;;;5012382;28;20055;-84
2023/04/12 12:08:14;;;;;;;13.25;1.92;;;12.70;99.90;;;;;;5011531;28;20055;-84
2023/04/12 12:10:40;;;;;;;14.15;2.45;;;12.70;99.90;;;;;;5028327;28;20133;-85
2023/04/12 12:13:13;;;;;;;15.27;1.70;;;12.80;99.90;;;;;;5028949;28;20132;-85
2023/04/12 12:15:39;;;;;;;16.70;2.50;;;12.80;99.90;;;;;;5013307;28;20680;-86
2023/04/12 12:18:08;;;;;;;15.05;2.35;;;12.70;99.90;;;;;;5048047;28;20040;-85
2023/04/12 12:20:50;;;;;;;17.85;2.35;;;12.80;99.90;;;;;;5023991;28;20041;-84
2023/04/12 12:23:32;;;;;;;14.63;2.33;;;12.80;99.90;;;;;;5013030;28;20045;-84
2023/04/12 12:25:58;;;;;;;17.67;2.28;;;12.80;99.90;;;;;;4995315;28;20612;-86
2023/04/12 12:28:24;;;;;;;12.93;1.83;;;12.80;99.90;;;;;;5013425;28;20045;-83
2023/04/12 12:30:56;;;;;;;11.77;2.33;;;13.00;99.90;;;;;;5014992;28;20047;-84
2023/04/12 12:33:38;;;;;;;12.25;2.03;;;12.90;99.90;;;;;;5016201;28;20053;-85
2023/04/12 12:36:08;;;;;;;11.25;2.08;;;13.00;99.90;;;;;;5015197;28;20065;-84
2023/04/12 12:38:41;;;;;;;10.20;1.98;;;13.00;99.90;;;;;;5038038;28;20041;-82
2023/04/12 12:41:17;;;;;;;15.73;2.10;;;13.10;99.90;;;;;;5056823;28;20438;-89
2023/04/12 12:43:53;;;;;;;14.60;2.58;;;13.10;99.90;;;;;;5039082;28;20128;-88
2023/04/12 12:46:19;;;;;;;13.27;2.13;;;12.90;99.90;;;;;;5056653;28;20045;-89
2023/04/12 12:48:46;;;;;;;12.23;1.92;;;12.80;99.90;;;;;;5056839;28;20116;-89
2023/04/12 12:51:16;;;;;;;13.65;2.33;;;12.70;99.90;;;;;;5039036;28;20063;-86
2023/04/12 12:53:45;;;;;;;12.05;2.25;;;12.70;99.90;;;;;;5038952;28;20134;-86